Fredericksburg, Virginia
Current Conditions -  °F | °C
As of 10:35 AM on Friday 24 Oct 2014 (Local Time) from KEZF Reporting Station
Clear Clear  
Wind Chill: 60°   Ceiling: Unl
Heat Index: 60°   Visibility: 10mi
Dew Point: 44°   Wind: 7mph
Humidity: 55%   Direction: 320°NW
Pressure: 30"   Gusts: 16mph
Location:  38.3°N, 77.46°W
Report Text: KEZF 241435Z AUTO 32006G14KT 10SM CLR 16/07 A3000 RMK AO2 T01560065
Loading
Personal Weather Stations






























Interactive Weather Map New forecast layout! Learn more

10-Day Weather Forecast

Advertisements
Track Severe Weather on mobile